sensor_id;sensor_type;location;lat;lon;timestamp;P1;durP1;ratioP1;P2;durP2;ratioP2
14789;SDS011;7486;51.010;10.366;2023-04-15T00:02:15;8.23;;;7.43;;
14789;SDS011;7486;51.010;10.366;2023-04-15T00:05:03;9.30;;;7.70;;
14789;SDS011;7486;51.010;10.366;2023-04-15T00:07:49;10.43;;;8.93;;
14789;SDS011;7486;51.010;10.366;2023-04-15T00:10:35;9.27;;;8.37;;
14789;SDS011;7486;51.010;10.366;2023-04-15T00:13:20;8.90;;;8.10;;
14789;SDS011;7486;51.010;10.366;2023-04-15T00:16:05;9.00;;;8.10;;
14789;SDS011;7486;51.010;10.366;2023-04-15T00:18:52;10.67;;;8.77;;
14789;SDS011;7486;51.010;10.366;2023-04-15T00:21:37;9.57;;;8.63;;
14789;SDS011;7486;51.010;10.366;2023-04-15T00:24:23;11.17;;;9.40;;
14789;SDS011;7486;51.010;10.366;2023-04-15T00:27:09;10.67;;;9.47;;
14789;SDS011;7486;51.010;10.366;2023-04-15T00:29:54;10.03;;;9.10;;
14789;SDS011;7486;51.010;10.366;2023-04-15T00:32:40;9.43;;;8.50;;
14789;SDS011;7486;51.010;10.366;2023-04-15T00:35:25;8.07;;;7.27;;
14789;SDS011;7486;51.010;10.366;2023-04-15T00:38:11;8.33;;;7.43;;
14789;SDS011;7486;51.010;10.366;2023-04-15T00:40:58;8.37;;;7.47;;
14789;SDS011;7486;51.010;10.366;2023-04-15T00:43:44;8.70;;;7.77;;
14789;SDS011;7486;51.010;10.366;2023-04-15T00:46:30;7.80;;;7.10;;
14789;SDS011;7486;51.010;10.366;2023-04-15T00:49:17;10.00;;;8.77;;
14789;SDS011;7486;51.010;10.366;2023-04-15T00:52:03;8.33;;;7.53;;
14789;SDS011;7486;51.010;10.366;2023-04-15T00:54:48;9.20;;;8.23;;
14789;SDS011;7486;51.010;10.366;2023-04-15T00:57:34;9.83;;;8.07;;
14789;SDS011;7486;51.010;10.366;2023-04-15T01:00:20;8.67;;;7.40;;
14789;SDS011;7486;51.010;10.366;2023-04-15T01:03:06;8.50;;;7.70;;
14789;SDS011;7486;51.010;10.366;2023-04-15T01:05:52;8.23;;;7.43;;
14789;SDS011;7486;51.010;10.366;2023-04-15T01:08:38;9.17;;;8.23;;
14789;SDS011;7486;51.010;10.366;2023-04-15T01:11:23;9.23;;;8.27;;
14789;SDS011;7486;51.010;10.366;2023-04-15T01:14:09;9.10;;;8.03;;
14789;SDS011;7486;51.010;10.366;2023-04-15T01:16:55;8.73;;;7.90;;
14789;SDS011;7486;51.010;10.366;2023-04-15T01:19:40;9.63;;;8.63;;
14789;SDS011;7486;51.010;10.366;2023-04-15T01:22:26;9.20;;;8.23;;
14789;SDS011;7486;51.010;10.366;2023-04-15T01:25:14;9.73;;;8.73;;
14789;SDS011;7486;51.010;10.366;2023-04-15T01:28:02;11.77;;;9.50;;
14789;SDS011;7486;51.010;10.366;2023-04-15T01:30:49;10.60;;;9.50;;
14789;SDS011;7486;51.010;10.366;2023-04-15T01:33:36;11.27;;;10.17;;
14789;SDS011;7486;51.010;10.366;2023-04-15T01:36:23;11.03;;;9.80;;
14789;SDS011;7486;51.010;10.366;2023-04-15T01:39:10;10.77;;;9.27;;
14789;SDS011;7486;51.010;10.366;2023-04-15T01:41:56;10.03;;;8.93;;
14789;SDS011;7486;51.010;10.366;2023-04-15T01:44:41;10.13;;;8.87;;
14789;SDS011;7486;51.010;10.366;2023-04-15T01:47:28;10.97;;;9.87;;
14789;SDS011;7486;51.010;10.366;2023-04-15T01:50:14;10.47;;;9.43;;
14789;SDS011;7486;51.010;10.366;2023-04-15T01:52:59;10.77;;;9.13;;
14789;SDS011;7486;51.010;10.366;2023-04-15T01:55:44;10.70;;;9.60;;
14789;SDS011;7486;51.010;10.366;2023-04-15T01:58:31;10.27;;;9.20;;
14789;SDS011;7486;51.010;10.366;2023-04-15T02:01:17;9.97;;;8.97;;
14789;SDS011;7486;51.010;10.366;2023-04-15T02:04:03;9.70;;;8.77;;
14789;SDS011;7486;51.010;10.366;2023-04-15T02:06:49;10.60;;;9.20;;
14789;SDS011;7486;51.010;10.366;2023-04-15T02:09:34;9.73;;;8.83;;
14789;SDS011;7486;51.010;10.366;2023-04-15T02:12:19;9.77;;;8.77;;
14789;SDS011;7486;51.010;10.366;2023-04-15T02:15:05;10.13;;;8.93;;
14789;SDS011;7486;51.010;10.366;2023-04-15T02:17:50;9.90;;;8.90;;
14789;SDS011;7486;51.010;10.366;2023-04-15T02:20:36;10.27;;;9.13;;
14789;SDS011;7486;51.010;10.366;2023-04-15T02:23:21;10.07;;;8.80;;
14789;SDS011;7486;51.010;10.366;2023-04-15T02:26:07;9.60;;;8.53;;
14789;SDS011;7486;51.010;10.366;2023-04-15T02:28:53;9.50;;;8.47;;
14789;SDS011;7486;51.010;10.366;2023-04-15T02:31:39;10.03;;;8.10;;
14789;SDS011;7486;51.010;10.366;2023-04-15T02:34:24;10.33;;;8.80;;
14789;SDS011;7486;51.010;10.366;2023-04-15T02:37:10;10.40;;;9.20;;
14789;SDS011;7486;51.010;10.366;2023-04-15T02:39:57;11.27;;;9.13;;
14789;SDS011;7486;51.010;10.366;2023-04-15T02:42:42;10.03;;;9.03;;
14789;SDS011;7486;51.010;10.366;2023-04-15T02:45:30;10.53;;;9.43;;
14789;SDS011;7486;51.010;10.366;2023-04-15T02:48:18;11.37;;;10.03;;
14789;SDS011;7486;51.010;10.366;2023-04-15T02:51:13;10.27;;;9.20;;
14789;SDS011;7486;51.010;10.366;2023-04-15T02:53:59;10.23;;;9.20;;
14789;SDS011;7486;51.010;10.366;2023-04-15T02:56:45;11.87;;;10.53;;
14789;SDS011;7486;51.010;10.366;2023-04-15T02:59:30;11.57;;;9.87;;
14789;SDS011;7486;51.010;10.366;2023-04-15T03:02:16;10.60;;;9.50;;
14789;SDS011;7486;51.010;10.366;2023-04-15T03:05:02;10.73;;;9.37;;
14789;SDS011;7486;51.010;10.366;2023-04-15T03:07:48;10.27;;;9.27;;
14789;SDS011;7486;51.010;10.366;2023-04-15T03:10:33;10.37;;;9.37;;
14789;SDS011;7486;51.010;10.366;2023-04-15T03:13:19;10.07;;;9.07;;
14789;SDS011;7486;51.010;10.366;2023-04-15T03:16:05;10.23;;;9.17;;
14789;SDS011;7486;51.010;10.366;2023-04-15T03:18:51;9.50;;;8.60;;
14789;SDS011;7486;51.010;10.366;2023-04-15T03:21:37;11.03;;;9.57;;
14789;SDS011;7486;51.010;10.366;2023-04-15T03:24:23;10.30;;;9.30;;
14789;SDS011;7486;51.010;10.366;2023-04-15T03:27:08;12.20;;;10.37;;
14789;SDS011;7486;51.010;10.366;2023-04-15T03:29:54;12.43;;;11.00;;
14789;SDS011;7486;51.010;10.366;2023-04-15T03:32:41;14.53;;;12.00;;
14789;SDS011;7486;51.010;10.366;2023-04-15T03:35:27;13.30;;;11.90;;
14789;SDS011;7486;51.010;10.366;2023-04-15T03:38:12;13.57;;;12.17;;
14789;SDS011;7486;51.010;10.366;2023-04-15T03:40:58;13.90;;;11.70;;
14789;SDS011;7486;51.010;10.366;2023-04-15T03:43:43;13.80;;;12.00;;
14789;SDS011;7486;51.010;10.366;2023-04-15T03:46:29;13.33;;;11.57;;
14789;SDS011;7486;51.010;10.366;2023-04-15T03:49:14;12.67;;;11.37;;
14789;SDS011;7486;51.010;10.366;2023-04-15T03:51:59;14.37;;;11.37;;
14789;SDS011;7486;51.010;10.366;2023-04-15T03:54:44;13.60;;;12.20;;
14789;SDS011;7486;51.010;10.366;2023-04-15T03:57:29;12.20;;;10.77;;
14789;SDS011;7486;51.010;10.366;2023-04-15T04:00:14;13.40;;;11.57;;
14789;SDS011;7486;51.010;10.366;2023-04-15T04:02:59;12.37;;;11.07;;
14789;SDS011;7486;51.010;10.366;2023-04-15T04:05:45;11.80;;;10.50;;
14789;SDS011;7486;51.010;10.366;2023-04-15T04:08:31;12.60;;;10.70;;
14789;SDS011;7486;51.010;10.366;2023-04-15T04:11:16;12.30;;;10.47;;
14789;SDS011;7486;51.010;10.366;2023-04-15T04:14:02;12.27;;;10.50;;
14789;SDS011;7486;51.010;10.366;2023-04-15T04:16:47;11.60;;;10.23;;
14789;SDS011;7486;51.010;10.366;2023-04-15T04:19:33;11.83;;;10.30;;
14789;SDS011;7486;51.010;10.366;2023-04-15T04:22:22;11.10;;;9.97;;
14789;SDS011;7486;51.010;10.366;2023-04-15T04:25:08;12.13;;;9.67;;
14789;SDS011;7486;51.010;10.366;2023-04-15T04:27:53;10.87;;;9.77;;
14789;SDS011;7486;51.010;10.366;2023-04-15T04:30:39;11.57;;;10.17;;
14789;SDS011;7486;51.010;10.366;2023-04-15T04:33:25;11.33;;;10.17;;
14789;SDS011;7486;51.010;10.366;2023-04-15T04:36:10;11.27;;;10.13;;
14789;SDS011;7486;51.010;10.366;2023-04-15T04:38:56;11.33;;;10.17;;
14789;SDS011;7486;51.010;10.366;2023-04-15T04:41:43;10.47;;;9.47;;
14789;SDS011;7486;51.010;10.366;2023-04-15T04:44:28;11.07;;;9.97;;
14789;SDS011;7486;51.010;10.366;2023-04-15T04:47:13;13.07;;;10.50;;
14789;SDS011;7486;51.010;10.366;2023-04-15T04:49:59;11.57;;;10.37;;
14789;SDS011;7486;51.010;10.366;2023-04-15T04:52:44;11.73;;;10.53;;
14789;SDS011;7486;51.010;10.366;2023-04-15T04:55:30;10.67;;;9.57;;
14789;SDS011;7486;51.010;10.366;2023-04-15T04:58:15;10.60;;;9.50;;
14789;SDS011;7486;51.010;10.366;2023-04-15T05:01:00;10.70;;;9.60;;
14789;SDS011;7486;51.010;10.366;2023-04-15T05:03:46;11.17;;;9.23;;
14789;SDS011;7486;51.010;10.366;2023-04-15T05:06:31;10.37;;;9.27;;
14789;SDS011;7486;51.010;10.366;2023-04-15T05:09:17;9.87;;;8.93;;
14789;SDS011;7486;51.010;10.366;2023-04-15T05:12:03;10.43;;;8.87;;
14789;SDS011;7486;51.010;10.366;2023-04-15T05:14:48;10.13;;;9.13;;
14789;SDS011;7486;51.010;10.366;2023-04-15T05:17:33;10.00;;;9.03;;
14789;SDS011;7486;51.010;10.366;2023-04-15T05:20:19;9.83;;;8.83;;
14789;SDS011;7486;51.010;10.366;2023-04-15T05:23:04;11.07;;;9.57;;
14789;SDS011;7486;51.010;10.366;2023-04-15T05:25:50;10.77;;;9.67;;
14789;SDS011;7486;51.010;10.366;2023-04-15T05:28:35;10.50;;;9.17;;
14789;SDS011;7486;51.010;10.366;2023-04-15T05:31:20;10.10;;;9.10;;
14789;SDS011;7486;51.010;10.366;2023-04-15T05:34:06;10.43;;;9.07;;
14789;SDS011;7486;51.010;10.366;2023-04-15T05:36:51;10.37;;;9.30;;
14789;SDS011;7486;51.010;10.366;2023-04-15T05:39:37;10.13;;;9.13;;
14789;SDS011;7486;51.010;10.366;2023-04-15T05:42:22;9.23;;;8.33;;
14789;SDS011;7486;51.010;10.366;2023-04-15T05:45:07;9.23;;;8.33;;
14789;SDS011;7486;51.010;10.366;2023-04-15T05:47:53;11.20;;;8.70;;
14789;SDS011;7486;51.010;10.366;2023-04-15T05:50:41;9.53;;;8.53;;
14789;SDS011;7486;51.010;10.366;2023-04-15T05:53:27;9.30;;;7.43;;
14789;SDS011;7486;51.010;10.366;2023-04-15T05:56:12;8.27;;;7.40;;
14789;SDS011;7486;51.010;10.366;2023-04-15T05:58:58;8.93;;;7.83;;
14789;SDS011;7486;51.010;10.366;2023-04-15T06:01:43;8.87;;;7.63;;
14789;SDS011;7486;51.010;10.366;2023-04-15T06:04:29;8.40;;;7.60;;
14789;SDS011;7486;51.010;10.366;2023-04-15T06:07:14;9.13;;;7.87;;
14789;SDS011;7486;51.010;10.366;2023-04-15T06:10:00;8.97;;;8.07;;
14789;SDS011;7486;51.010;10.366;2023-04-15T06:12:45;9.17;;;7.93;;
14789;SDS011;7486;51.010;10.366;2023-04-15T06:15:30;7.77;;;7.07;;
14789;SDS011;7486;51.010;10.366;2023-04-15T06:18:16;9.00;;;7.33;;
14789;SDS011;7486;51.010;10.366;2023-04-15T06:21:01;8.93;;;7.80;;
14789;SDS011;7486;51.010;10.366;2023-04-15T06:23:46;8.27;;;7.07;;
14789;SDS011;7486;51.010;10.366;2023-04-15T06:26:32;8.57;;;7.60;;
14789;SDS011;7486;51.010;10.366;2023-04-15T06:29:17;8.83;;;7.93;;
14789;SDS011;7486;51.010;10.366;2023-04-15T06:32:03;9.23;;;8.10;;
14789;SDS011;7486;51.010;10.366;2023-04-15T06:34:48;8.03;;;7.23;;
14789;SDS011;7486;51.010;10.366;2023-04-15T06:37:34;6.87;;;6.17;;
14789;SDS011;7486;51.010;10.366;2023-04-15T06:40:19;7.73;;;6.77;;
14789;SDS011;7486;51.010;10.366;2023-04-15T06:43:05;8.37;;;7.03;;
14789;SDS011;7486;51.010;10.366;2023-04-15T06:45:51;8.23;;;7.40;;
14789;SDS011;7486;51.010;10.366;2023-04-15T06:48:36;8.03;;;7.23;;
14789;SDS011;7486;51.010;10.366;2023-04-15T06:51:23;8.20;;;7.33;;
14789;SDS011;7486;51.010;10.366;2023-04-15T06:54:11;8.23;;;7.43;;
14789;SDS011;7486;51.010;10.366;2023-04-15T06:56:56;7.73;;;6.93;;
14789;SDS011;7486;51.010;10.366;2023-04-15T06:59:42;9.47;;;8.33;;
14789;SDS011;7486;51.010;10.366;2023-04-15T07:02:27;8.33;;;7.43;;
14789;SDS011;7486;51.010;10.366;2023-04-15T07:05:13;7.67;;;6.87;;
14789;SDS011;7486;51.010;10.366;2023-04-15T07:07:59;8.40;;;7.47;;
14789;SDS011;7486;51.010;10.366;2023-04-15T07:10:45;7.97;;;7.17;;
14789;SDS011;7486;51.010;10.366;2023-04-15T07:13:31;7.97;;;7.17;;
14789;SDS011;7486;51.010;10.366;2023-04-15T07:16:17;7.50;;;6.80;;
14789;SDS011;7486;51.010;10.366;2023-04-15T07:19:03;7.87;;;7.07;;
14789;SDS011;7486;51.010;10.366;2023-04-15T07:21:48;8.20;;;7.13;;
14789;SDS011;7486;51.010;10.366;2023-04-15T07:24:34;10.30;;;6.87;;
14789;SDS011;7486;51.010;10.366;2023-04-15T07:27:19;7.70;;;6.90;;
14789;SDS011;7486;51.010;10.366;2023-04-15T07:30:05;7.83;;;7.03;;
14789;SDS011;7486;51.010;10.366;2023-04-15T07:32:51;7.50;;;6.70;;
14789;SDS011;7486;51.010;10.366;2023-04-15T07:35:36;8.27;;;7.40;;
14789;SDS011;7486;51.010;10.366;2023-04-15T07:38:22;7.47;;;6.60;;
14789;SDS011;7486;51.010;10.366;2023-04-15T07:41:08;7.57;;;6.47;;
14789;SDS011;7486;51.010;10.366;2023-04-15T07:43:53;7.10;;;6.27;;
14789;SDS011;7486;51.010;10.366;2023-04-15T07:46:40;7.40;;;6.50;;
14789;SDS011;7486;51.010;10.366;2023-04-15T07:49:26;7.43;;;6.73;;
14789;SDS011;7486;51.010;10.366;2023-04-15T07:52:11;8.77;;;7.23;;
14789;SDS011;7486;51.010;10.366;2023-04-15T07:54:57;7.37;;;6.53;;
14789;SDS011;7486;51.010;10.366;2023-04-15T07:57:43;10.10;;;8.30;;
14789;SDS011;7486;51.010;10.366;2023-04-15T08:00:28;7.87;;;7.00;;
14789;SDS011;7486;51.010;10.366;2023-04-15T08:03:13;7.17;;;6.47;;
14789;SDS011;7486;51.010;10.366;2023-04-15T08:05:58;8.80;;;6.97;;
14789;SDS011;7486;51.010;10.366;2023-04-15T08:08:44;7.67;;;6.63;;
14789;SDS011;7486;51.010;10.366;2023-04-15T08:11:29;7.97;;;6.43;;
14789;SDS011;7486;51.010;10.366;2023-04-15T08:14:14;6.87;;;6.17;;
14789;SDS011;7486;51.010;10.366;2023-04-15T08:17:00;6.80;;;6.10;;
14789;SDS011;7486;51.010;10.366;2023-04-15T08:19:46;6.97;;;6.27;;
14789;SDS011;7486;51.010;10.366;2023-04-15T08:22:32;6.43;;;5.83;;
14789;SDS011;7486;51.010;10.366;2023-04-15T08:25:20;6.83;;;6.13;;
14789;SDS011;7486;51.010;10.366;2023-04-15T08:28:06;6.67;;;6.03;;
14789;SDS011;7486;51.010;10.366;2023-04-15T08:30:52;6.70;;;6.00;;
14789;SDS011;7486;51.010;10.366;2023-04-15T08:33:38;6.90;;;6.17;;
14789;SDS011;7486;51.010;10.366;2023-04-15T08:36:23;6.37;;;5.50;;
14789;SDS011;7486;51.010;10.366;2023-04-15T08:39:09;6.20;;;5.60;;
14789;SDS011;7486;51.010;10.366;2023-04-15T08:42:01;5.60;;;5.07;;
14789;SDS011;7486;51.010;10.366;2023-04-15T08:44:47;5.87;;;5.27;;
14789;SDS011;7486;51.010;10.366;2023-04-15T08:47:33;6.53;;;5.53;;
14789;SDS011;7486;51.010;10.366;2023-04-15T08:50:21;5.43;;;4.93;;
14789;SDS011;7486;51.010;10.366;2023-04-15T08:53:09;6.30;;;5.40;;
14789;SDS011;7486;51.010;10.366;2023-04-15T08:55:55;5.63;;;5.03;;
14789;SDS011;7486;51.010;10.366;2023-04-15T08:58:44;5.73;;;5.17;;
14789;SDS011;7486;51.010;10.366;2023-04-15T09:01:31;5.20;;;4.67;;
14789;SDS011;7486;51.010;10.366;2023-04-15T09:04:17;5.37;;;4.70;;
14789;SDS011;7486;51.010;10.366;2023-04-15T09:07:03;5.63;;;4.77;;
14789;SDS011;7486;51.010;10.366;2023-04-15T09:09:49;5.33;;;4.83;;
14789;SDS011;7486;51.010;10.366;2023-04-15T09:12:34;6.60;;;5.67;;
14789;SDS011;7486;51.010;10.366;2023-04-15T09:15:22;6.17;;;5.07;;
14789;SDS011;7486;51.010;10.366;2023-04-15T09:18:10;5.83;;;5.20;;
14789;SDS011;7486;51.010;10.366;2023-04-15T09:21:06;4.90;;;4.40;;
14789;SDS011;7486;51.010;10.366;2023-04-15T09:23:57;4.20;;;3.80;;
14789;SDS011;7486;51.010;10.366;2023-04-15T09:26:44;4.67;;;4.17;;
14789;SDS011;7486;51.010;10.366;2023-04-15T09:29:29;5.67;;;4.30;;
14789;SDS011;7486;51.010;10.366;2023-04-15T09:32:15;4.63;;;4.13;;
14789;SDS011;7486;51.010;10.366;2023-04-15T09:35:09;4.97;;;4.20;;
14789;SDS011;7486;51.010;10.366;2023-04-15T09:38:05;5.00;;;4.50;;
14789;SDS011;7486;51.010;10.366;2023-04-15T09:40:52;4.60;;;4.20;;
14789;SDS011;7486;51.010;10.366;2023-04-15T09:43:38;4.97;;;4.43;;
14789;SDS011;7486;51.010;10.366;2023-04-15T09:46:43;4.50;;;4.10;;
14789;SDS011;7486;51.010;10.366;2023-04-15T09:49:29;4.83;;;4.13;;
14789;SDS011;7486;51.010;10.366;2023-04-15T09:52:15;4.73;;;4.33;;
14789;SDS011;7486;51.010;10.366;2023-04-15T09:55:00;5.07;;;3.90;;
14789;SDS011;7486;51.010;10.366;2023-04-15T09:57:46;3.70;;;3.40;;
14789;SDS011;7486;51.010;10.366;2023-04-15T10:00:31;4.20;;;3.80;;
14789;SDS011;7486;51.010;10.366;2023-04-15T10:03:27;4.23;;;3.83;;
14789;SDS011;7486;51.010;10.366;2023-04-15T10:06:14;4.20;;;3.80;;
14789;SDS011;7486;51.010;10.366;2023-04-15T10:09:00;4.47;;;3.90;;
14789;SDS011;7486;51.010;10.366;2023-04-15T10:11:46;3.80;;;3.50;;
14789;SDS011;7486;51.010;10.366;2023-04-15T10:14:35;3.10;;;2.80;;
14789;SDS011;7486;51.010;10.366;2023-04-15T10:17:23;5.00;;;4.50;;
14789;SDS011;7486;51.010;10.366;2023-04-15T10:20:15;3.80;;;3.40;;
14789;SDS011;7486;51.010;10.366;2023-04-15T10:23:04;3.77;;;3.20;;
14789;SDS011;7486;51.010;10.366;2023-04-15T10:25:52;4.50;;;3.60;;
14789;SDS011;7486;51.010;10.366;2023-04-15T10:28:38;5.53;;;5.03;;
14789;SDS011;7486;51.010;10.366;2023-04-15T10:31:24;8.20;;;5.63;;
14789;SDS011;7486;51.010;10.366;2023-04-15T10:34:10;6.53;;;5.30;;
14789;SDS011;7486;51.010;10.366;2023-04-15T10:37:02;7.03;;;5.43;;
14789;SDS011;7486;51.010;10.366;2023-04-15T10:39:48;8.23;;;6.30;;
14789;SDS011;7486;51.010;10.366;2023-04-15T10:42:33;11.60;;;9.00;;
14789;SDS011;7486;51.010;10.366;2023-04-15T10:45:19;19.30;;;13.47;;
14789;SDS011;7486;51.010;10.366;2023-04-15T10:48:05;6.20;;;5.27;;
14789;SDS011;7486;51.010;10.366;2023-04-15T10:50:55;5.30;;;4.80;;
14789;SDS011;7486;51.010;10.366;2023-04-15T10:53:41;7.23;;;6.07;;
14789;SDS011;7486;51.010;10.366;2023-04-15T10:56:27;7.63;;;5.60;;
14789;SDS011;7486;51.010;10.366;2023-04-15T10:59:14;4.43;;;3.90;;
14789;SDS011;7486;51.010;10.366;2023-04-15T11:02:04;2.37;;;2.17;;
14789;SDS011;7486;51.010;10.366;2023-04-15T11:04:54;2.70;;;2.50;;
14789;SDS011;7486;51.010;10.366;2023-04-15T11:13:15;2.10;;;1.90;;
14789;SDS011;7486;51.010;10.366;2023-04-15T11:16:01;2.30;;;2.10;;
14789;SDS011;7486;51.010;10.366;2023-04-15T11:18:54;2.37;;;2.17;;
14789;SDS011;7486;51.010;10.366;2023-04-15T11:21:39;2.30;;;2.10;;
14789;SDS011;7486;51.010;10.366;2023-04-15T11:24:25;2.33;;;2.13;;
14789;SDS011;7486;51.010;10.366;2023-04-15T11:27:18;2.60;;;2.40;;
14789;SDS011;7486;51.010;10.366;2023-04-15T11:30:21;3.40;;;3.10;;
14789;SDS011;7486;51.010;10.366;2023-04-15T11:33:08;5.63;;;4.30;;
14789;SDS011;7486;51.010;10.366;2023-04-15T11:35:55;2.97;;;2.70;;
14789;SDS011;7486;51.010;10.366;2023-04-15T11:38:45;2.77;;;2.57;;
14789;SDS011;7486;51.010;10.366;2023-04-15T11:41:31;3.30;;;2.90;;
14789;SDS011;7486;51.010;10.366;2023-04-15T11:44:17;3.20;;;2.47;;
14789;SDS011;7486;51.010;10.366;2023-04-15T11:47:20;3.50;;;3.20;;
14789;SDS011;7486;51.010;10.366;2023-04-15T11:50:16;2.07;;;1.93;;
14789;SDS011;7486;51.010;10.366;2023-04-15T11:53:03;2.50;;;2.30;;
14789;SDS011;7486;51.010;10.366;2023-04-15T11:55:52;2.20;;;1.93;;
14789;SDS011;7486;51.010;10.366;2023-04-15T11:58:38;2.13;;;1.93;;
14789;SDS011;7486;51.010;10.366;2023-04-15T12:01:30;1.73;;;1.63;;
14789;SDS011;7486;51.010;10.366;2023-04-15T12:04:22;1.87;;;1.77;;
14789;SDS011;7486;51.010;10.366;2023-04-15T12:07:10;2.00;;;1.80;;
14789;SDS011;7486;51.010;10.366;2023-04-15T12:09:55;1.80;;;1.70;;
14789;SDS011;7486;51.010;10.366;2023-04-15T12:12:41;2.30;;;2.03;;
14789;SDS011;7486;51.010;10.366;2023-04-15T12:15:26;2.00;;;1.90;;
14789;SDS011;7486;51.010;10.366;2023-04-15T12:18:16;2.20;;;2.00;;
14789;SDS011;7486;51.010;10.366;2023-04-15T12:21:09;2.33;;;2.13;;
14789;SDS011;7486;51.010;10.366;2023-04-15T12:23:56;1.87;;;1.73;;
14789;SDS011;7486;51.010;10.366;2023-04-15T12:29:32;2.03;;;1.83;;
14789;SDS011;7486;51.010;10.366;2023-04-15T12:32:19;2.43;;;2.23;;
14789;SDS011;7486;51.010;10.366;2023-04-15T12:35:04;2.40;;;2.17;;
14789;SDS011;7486;51.010;10.366;2023-04-15T12:37:51;2.60;;;2.40;;
14789;SDS011;7486;51.010;10.366;2023-04-15T12:40:36;2.60;;;2.40;;
14789;SDS011;7486;51.010;10.366;2023-04-15T12:43:21;2.40;;;2.20;;
14789;SDS011;7486;51.010;10.366;2023-04-15T12:46:07;2.50;;;2.30;;
14789;SDS011;7486;51.010;10.366;2023-04-15T12:48:52;2.60;;;2.40;;
14789;SDS011;7486;51.010;10.366;2023-04-15T12:51:38;2.57;;;2.37;;
14789;SDS011;7486;51.010;10.366;2023-04-15T12:54:24;2.70;;;2.50;;
14789;SDS011;7486;51.010;10.366;2023-04-15T12:57:10;2.40;;;2.20;;
14789;SDS011;7486;51.010;10.366;2023-04-15T12:59:55;2.70;;;2.50;;
14789;SDS011;7486;51.010;10.366;2023-04-15T13:02:42;3.10;;;2.90;;
14789;SDS011;7486;51.010;10.366;2023-04-15T13:05:28;3.50;;;2.50;;
14789;SDS011;7486;51.010;10.366;2023-04-15T13:08:14;5.27;;;4.17;;
14789;SDS011;7486;51.010;10.366;2023-04-15T13:11:00;4.70;;;3.57;;
14789;SDS011;7486;51.010;10.366;2023-04-15T13:13:45;6.27;;;4.87;;
14789;SDS011;7486;51.010;10.366;2023-04-15T13:16:31;4.80;;;4.30;;
14789;SDS011;7486;51.010;10.366;2023-04-15T13:19:17;3.90;;;3.47;;
14789;SDS011;7486;51.010;10.366;2023-04-15T13:22:03;3.40;;;3.10;;
14789;SDS011;7486;51.010;10.366;2023-04-15T13:24:49;3.40;;;3.10;;
14789;SDS011;7486;51.010;10.366;2023-04-15T13:27:34;3.73;;;3.07;;
14789;SDS011;7486;51.010;10.366;2023-04-15T13:30:19;5.20;;;3.07;;
14789;SDS011;7486;51.010;10.366;2023-04-15T13:33:05;3.73;;;3.13;;
14789;SDS011;7486;51.010;10.366;2023-04-15T13:35:50;5.17;;;4.30;;
14789;SDS011;7486;51.010;10.366;2023-04-15T13:38:36;4.33;;;3.93;;
14789;SDS011;7486;51.010;10.366;2023-04-15T13:41:21;16.43;;;14.93;;
14789;SDS011;7486;51.010;10.366;2023-04-15T13:44:06;4.00;;;3.70;;
14789;SDS011;7486;51.010;10.366;2023-04-15T13:46:52;5.57;;;5.07;;
14789;SDS011;7486;51.010;10.366;2023-04-15T13:49:37;5.03;;;4.63;;
14789;SDS011;7486;51.010;10.366;2023-04-15T13:52:23;2.90;;;2.70;;
14789;SDS011;7486;51.010;10.366;2023-04-15T13:55:08;2.90;;;2.60;;
14789;SDS011;7486;51.010;10.366;2023-04-15T13:58:05;3.17;;;2.87;;
14789;SDS011;7486;51.010;10.366;2023-04-15T14:00:50;3.40;;;3.07;;
14789;SDS011;7486;51.010;10.366;2023-04-15T14:03:35;3.40;;;2.77;;
14789;SDS011;7486;51.010;10.366;2023-04-15T14:06:22;3.30;;;3.00;;
14789;SDS011;7486;51.010;10.366;2023-04-15T14:09:08;3.30;;;3.00;;
14789;SDS011;7486;51.010;10.366;2023-04-15T14:11:54;3.47;;;3.17;;
14789;SDS011;7486;51.010;10.366;2023-04-15T14:14:39;2.63;;;2.43;;
14789;SDS011;7486;51.010;10.366;2023-04-15T14:17:25;3.47;;;3.17;;
14789;SDS011;7486;51.010;10.366;2023-04-15T14:20:11;5.37;;;4.87;;
14789;SDS011;7486;51.010;10.366;2023-04-15T14:22:59;18.73;;;16.97;;
14789;SDS011;7486;51.010;10.366;2023-04-15T14:25:45;5.20;;;4.70;;
14789;SDS011;7486;51.010;10.366;2023-04-15T14:28:32;5.07;;;4.57;;
14789;SDS011;7486;51.010;10.366;2023-04-15T14:31:17;3.43;;;3.13;;
14789;SDS011;7486;51.010;10.366;2023-04-15T14:34:03;4.20;;;3.80;;
14789;SDS011;7486;51.010;10.366;2023-04-15T14:36:49;3.87;;;3.57;;
14789;SDS011;7486;51.010;10.366;2023-04-15T14:39:35;4.00;;;3.70;;
14789;SDS011;7486;51.010;10.366;2023-04-15T14:42:20;5.90;;;5.30;;
14789;SDS011;7486;51.010;10.366;2023-04-15T14:45:06;7.27;;;6.10;;
14789;SDS011;7486;51.010;10.366;2023-04-15T14:47:52;11.10;;;9.37;;
14789;SDS011;7486;51.010;10.366;2023-04-15T14:50:38;6.00;;;5.40;;
14789;SDS011;7486;51.010;10.366;2023-04-15T14:53:24;4.93;;;4.43;;
14789;SDS011;7486;51.010;10.366;2023-04-15T14:56:10;4.47;;;4.07;;
14789;SDS011;7486;51.010;10.366;2023-04-15T14:58:55;4.10;;;3.70;;
14789;SDS011;7486;51.010;10.366;2023-04-15T15:01:41;4.97;;;4.47;;
14789;SDS011;7486;51.010;10.366;2023-04-15T15:04:26;4.40;;;4.00;;
14789;SDS011;7486;51.010;10.366;2023-04-15T15:07:13;5.50;;;5.00;;
14789;SDS011;7486;51.010;10.366;2023-04-15T15:09:58;9.53;;;8.63;;
14789;SDS011;7486;51.010;10.366;2023-04-15T15:12:43;8.63;;;7.93;;
14789;SDS011;7486;51.010;10.366;2023-04-15T15:15:29;3.93;;;3.50;;
14789;SDS011;7486;51.010;10.366;2023-04-15T15:18:15;4.07;;;3.67;;
14789;SDS011;7486;51.010;10.366;2023-04-15T15:21:01;9.50;;;8.60;;
14789;SDS011;7486;51.010;10.366;2023-04-15T15:23:46;3.93;;;3.40;;
14789;SDS011;7486;51.010;10.366;2023-04-15T15:26:31;4.30;;;3.50;;
14789;SDS011;7486;51.010;10.366;2023-04-15T15:29:17;3.70;;;3.10;;
14789;SDS011;7486;51.010;10.366;2023-04-15T15:32:02;3.77;;;3.20;;
14789;SDS011;7486;51.010;10.366;2023-04-15T15:34:48;3.57;;;2.97;;
14789;SDS011;7486;51.010;10.366;2023-04-15T15:37:36;3.83;;;2.90;;
14789;SDS011;7486;51.010;10.366;2023-04-15T15:40:22;3.67;;;2.83;;
14789;SDS011;7486;51.010;10.366;2023-04-15T15:43:08;3.50;;;3.00;;
14789;SDS011;7486;51.010;10.366;2023-04-15T15:45:53;3.17;;;2.87;;
14789;SDS011;7486;51.010;10.366;2023-04-15T15:48:42;3.80;;;3.33;;
14789;SDS011;7486;51.010;10.366;2023-04-15T15:51:28;3.07;;;2.63;;
14789;SDS011;7486;51.010;10.366;2023-04-15T15:54:13;2.77;;;2.50;;
14789;SDS011;7486;51.010;10.366;2023-04-15T15:56:59;3.17;;;2.73;;
14789;SDS011;7486;51.010;10.366;2023-04-15T15:59:44;3.07;;;2.43;;
14789;SDS011;7486;51.010;10.366;2023-04-15T16:02:33;3.57;;;2.57;;
14789;SDS011;7486;51.010;10.366;2023-04-15T16:05:39;3.33;;;2.47;;
14789;SDS011;7486;51.010;10.366;2023-04-15T16:08:24;2.67;;;2.47;;
14789;SDS011;7486;51.010;10.366;2023-04-15T16:11:10;3.47;;;3.10;;
14789;SDS011;7486;51.010;10.366;2023-04-15T16:13:55;3.23;;;2.93;;
14789;SDS011;7486;51.010;10.366;2023-04-15T16:16:41;3.70;;;2.90;;
14789;SDS011;7486;51.010;10.366;2023-04-15T16:19:27;4.67;;;4.20;;
14789;SDS011;7486;51.010;10.366;2023-04-15T16:22:13;4.80;;;4.30;;
14789;SDS011;7486;51.010;10.366;2023-04-15T16:24:59;6.27;;;5.67;;
14789;SDS011;7486;51.010;10.366;2023-04-15T16:27:45;7.13;;;5.87;;
14789;SDS011;7486;51.010;10.366;2023-04-15T16:30:47;4.00;;;3.60;;
14789;SDS011;7486;51.010;10.366;2023-04-15T16:33:33;3.93;;;3.47;;
14789;SDS011;7486;51.010;10.366;2023-04-15T16:36:18;4.63;;;4.13;;
14789;SDS011;7486;51.010;10.366;2023-04-15T16:39:04;4.63;;;4.00;;
14789;SDS011;7486;51.010;10.366;2023-04-15T16:41:49;4.40;;;3.83;;
14789;SDS011;7486;51.010;10.366;2023-04-15T16:44:35;4.87;;;4.03;;
14789;SDS011;7486;51.010;10.366;2023-04-15T16:47:20;4.80;;;4.17;;